createdAt,value
2023-02-27T00:01:03.724Z,3.42
2023-02-27T00:03:31.583Z,3.42
2023-02-27T00:05:58.060Z,4.35
2023-02-27T00:08:24.748Z,3.85
2023-02-27T00:10:51.094Z,4.28
2023-02-27T00:13:17.730Z,3.85
2023-02-27T00:15:45.117Z,3.83
2023-02-27T00:18:11.529Z,4.07
2023-02-27T00:20:39.295Z,4.30
2023-02-27T00:23:05.830Z,3.92
2023-02-27T00:25:32.577Z,4.55
2023-02-27T00:27:58.948Z,4.88
2023-02-27T00:30:25.368Z,4.32
2023-02-27T00:32:51.824Z,4.68
2023-02-27T00:35:18.334Z,5.22
2023-02-27T00:37:46.270Z,4.53
2023-02-27T00:40:13.027Z,4.60
2023-02-27T00:42:39.419Z,4.10
2023-02-27T00:45:06.369Z,4.55
2023-02-27T00:47:32.951Z,4.35
2023-02-27T00:49:59.373Z,4.72
2023-02-27T00:52:25.897Z,4.38
2023-02-27T00:54:53.782Z,4.65
2023-02-27T00:57:20.345Z,3.83
2023-02-27T00:59:46.729Z,4.15
2023-02-27T01:02:13.154Z,4.55
2023-02-27T01:04:39.639Z,4.63
2023-02-27T01:07:06.027Z,4.35
2023-02-27T01:09:32.352Z,4.28
2023-02-27T01:12:00.138Z,4.25
2023-02-27T01:14:26.586Z,3.80
2023-02-27T01:16:53.051Z,4.50
2023-02-27T01:19:19.558Z,4.20
2023-02-27T01:21:45.937Z,4.40
2023-02-27T01:24:12.575Z,4.65
2023-02-27T01:26:39.100Z,4.35
2023-02-27T01:29:06.821Z,4.30
2023-02-27T01:31:33.289Z,4.43
2023-02-27T01:33:59.728Z,4.53
2023-02-27T01:36:26.186Z,4.70
2023-02-27T01:38:52.649Z,4.68
2023-02-27T01:41:19.076Z,4.40
2023-02-27T01:43:55.725Z,4.43
2023-02-27T01:46:23.622Z,5.13
2023-02-27T01:48:50.981Z,4.88
2023-02-27T01:51:19.600Z,4.82
2023-02-27T01:53:46.852Z,4.35
2023-02-27T01:56:15.722Z,4.60
2023-02-27T01:58:42.719Z,4.78
2023-02-27T02:01:09.252Z,4.60
2023-02-27T02:03:39.798Z,4.60
2023-02-27T02:06:06.635Z,4.45
2023-02-27T02:08:34.127Z,4.88
2023-02-27T02:11:00.864Z,5.20
2023-02-27T02:13:27.533Z,4.40
2023-02-27T02:16:00.612Z,4.13
2023-02-27T02:18:33.433Z,4.75
2023-02-27T02:21:14.647Z,4.30
2023-02-27T02:23:59.544Z,5.28
2023-02-27T02:26:38.199Z,4.93
2023-02-27T02:29:24.146Z,5.07
2023-02-27T02:32:14.600Z,5.32
2023-02-27T02:34:55.412Z,5.47
2023-02-27T02:37:38.707Z,5.45
2023-02-27T02:40:18.951Z,5.22
2023-02-27T02:42:48.146Z,5.35
2023-02-27T02:45:17.253Z,5.30
2023-02-27T02:47:51.795Z,5.43
2023-02-27T02:50:21.835Z,5.47
2023-02-27T02:52:52.619Z,5.00
2023-02-27T02:55:24.432Z,4.97
2023-02-27T02:57:55.780Z,4.78
2023-02-27T03:00:24.187Z,4.57
2023-02-27T03:02:53.287Z,4.57
2023-02-27T03:05:22.270Z,4.75
2023-02-27T03:07:50.913Z,4.80
2023-02-27T03:10:19.769Z,4.78
2023-02-27T03:12:49.546Z,4.97
2023-02-27T03:17:43.616Z,4.75
2023-02-27T03:20:12.351Z,4.75
2023-02-27T03:22:40.078Z,5.30
2023-02-27T03:25:07.794Z,4.60
2023-02-27T03:27:37.059Z,5.63
2023-02-27T03:30:07.166Z,5.13
2023-02-27T03:32:36.516Z,5.15
2023-02-27T03:35:04.498Z,5.25
2023-02-27T03:37:39.225Z,5.28
2023-02-27T03:40:09.790Z,4.82
2023-02-27T03:42:37.673Z,5.20
2023-02-27T03:45:08.538Z,5.63
2023-02-27T03:47:35.221Z,5.30
2023-02-27T03:50:01.669Z,5.35
2023-02-27T03:52:28.920Z,5.60
2023-02-27T03:54:57.496Z,5.63
2023-02-27T03:57:24.101Z,5.75
2023-02-27T03:59:50.753Z,5.95
2023-02-27T04:02:18.691Z,5.72
2023-02-27T04:04:45.137Z,5.65
2023-02-27T04:07:15.277Z,5.60
2023-02-27T04:09:47.884Z,5.40
2023-02-27T04:12:21.696Z,5.85
2023-02-27T04:14:58.715Z,5.72
2023-02-27T04:17:27.559Z,5.30
2023-02-27T04:20:11.897Z,5.68
2023-02-27T04:22:39.125Z,5.70
2023-02-27T04:25:09.755Z,5.38
2023-02-27T04:27:38.946Z,5.15
2023-02-27T04:30:13.158Z,4.95
2023-02-27T04:32:43.820Z,5.25
2023-02-27T04:35:12.380Z,5.57
2023-02-27T04:37:44.387Z,5.07
2023-02-27T04:40:12.501Z,5.25
2023-02-27T04:42:39.960Z,5.60
2023-02-27T04:45:08.599Z,5.60
2023-02-27T04:47:36.937Z,5.30
2023-02-27T04:50:07.446Z,5.40
2023-02-27T04:52:35.895Z,4.93
2023-02-27T04:55:05.165Z,5.47
2023-02-27T04:57:34.801Z,5.30
2023-02-27T05:02:29.411Z,4.88
2023-02-27T05:04:57.959Z,5.50
2023-02-27T05:07:27.650Z,5.00
2023-02-27T05:12:22.563Z,4.78
2023-02-27T05:14:51.564Z,5.03
2023-02-27T05:17:19.930Z,5.00
2023-02-27T05:19:46.811Z,5.30
2023-02-27T05:22:17.485Z,5.15
2023-02-27T05:24:48.568Z,4.78
2023-02-27T05:27:17.525Z,5.13
2023-02-27T05:29:46.701Z,4.85
2023-02-27T05:32:16.434Z,4.68
2023-02-27T05:34:44.580Z,5.32
2023-02-27T05:37:12.612Z,5.32
2023-02-27T05:39:40.394Z,4.60
2023-02-27T05:42:09.842Z,4.82
2023-02-27T05:44:38.746Z,5.28
2023-02-27T05:47:07.259Z,5.03
2023-02-27T05:49:36.288Z,5.82
2023-02-27T05:52:04.458Z,4.63
2023-02-27T05:54:33.860Z,4.93
2023-02-27T05:57:02.375Z,5.18
2023-02-27T05:59:34.150Z,5.15
2023-02-27T06:02:00.572Z,5.28
2023-02-27T06:04:27.063Z,5.22
2023-02-27T06:06:53.758Z,5.00
2023-02-27T06:09:20.149Z,5.32
2023-02-27T06:11:46.498Z,5.03
2023-02-27T06:14:12.838Z,4.47
2023-02-27T06:16:40.638Z,5.57
2023-02-27T06:19:07.042Z,4.78
2023-02-27T06:21:33.377Z,5.07
2023-02-27T06:23:59.747Z,4.95
2023-02-27T06:26:26.467Z,5.03
2023-02-27T06:28:52.961Z,4.72
2023-02-27T06:31:19.376Z,5.30
2023-02-27T06:33:47.157Z,4.95
2023-02-27T06:36:13.515Z,5.63
2023-02-27T06:38:40.028Z,5.90
2023-02-27T06:41:06.365Z,5.30
2023-02-27T06:43:33.061Z,6.15
2023-02-27T06:45:59.448Z,5.70
2023-02-27T06:48:25.893Z,6.57
2023-02-27T06:50:54.444Z,6.10
2023-02-27T06:53:20.801Z,5.95
2023-02-27T06:55:47.162Z,5.95
2023-02-27T06:58:13.584Z,6.18
2023-02-27T07:00:39.946Z,6.38
2023-02-27T07:03:06.314Z,6.45
2023-02-27T07:05:32.911Z,6.30
2023-02-27T07:08:00.874Z,5.70
2023-02-27T07:10:27.292Z,5.55
2023-02-27T07:12:53.694Z,6.25
2023-02-27T07:15:20.110Z,6.05
2023-02-27T07:17:46.522Z,5.97
2023-02-27T07:20:12.995Z,5.82
2023-02-27T07:22:40.184Z,5.97
2023-02-27T07:25:08.605Z,5.70
2023-02-27T07:27:34.992Z,5.90
2023-02-27T07:30:01.398Z,5.65
2023-02-27T07:32:27.997Z,6.88
2023-02-27T07:34:54.396Z,6.53
2023-02-27T07:37:20.772Z,5.88
2023-02-27T07:39:47.117Z,5.70
2023-02-27T07:42:14.949Z,5.63
2023-02-27T07:44:41.311Z,6.40
2023-02-27T07:47:07.893Z,6.57
2023-02-27T07:49:34.273Z,6.25
2023-02-27T07:52:00.623Z,6.50
2023-02-27T07:54:27.010Z,6.43
2023-02-27T07:56:53.490Z,6.00
2023-02-27T07:59:21.220Z,6.15
2023-02-27T08:01:47.941Z,5.50
2023-02-27T08:04:14.319Z,6.40
2023-02-27T08:06:40.980Z,6.40
2023-02-27T08:09:07.360Z,6.05
2023-02-27T08:11:33.737Z,6.53
2023-02-27T08:14:01.587Z,5.78
2023-02-27T08:16:30.402Z,6.93
2023-02-27T08:18:57.174Z,6.70
2023-02-27T08:21:23.644Z,7.30
2023-02-27T08:23:49.975Z,6.40
2023-02-27T08:26:16.353Z,6.57
2023-02-27T08:28:42.692Z,6.90
2023-02-27T08:31:09.143Z,6.78
2023-02-27T08:33:36.910Z,6.80
2023-02-27T08:36:03.357Z,7.25
2023-02-27T08:38:29.794Z,6.65
2023-02-27T08:40:56.213Z,7.05
2023-02-27T08:43:23.395Z,6.53
2023-02-27T08:45:50.247Z,6.82
2023-02-27T08:48:17.059Z,6.65
2023-02-27T08:50:45.174Z,6.20
2023-02-27T08:53:11.718Z,6.05
2023-02-27T08:55:38.201Z,6.57
2023-02-27T08:58:04.707Z,6.60
2023-02-27T09:00:31.165Z,6.60
2023-02-27T09:02:57.593Z,7.20
2023-02-27T09:05:24.034Z,6.40
2023-02-27T09:07:51.799Z,7.10
2023-02-27T09:10:18.204Z,6.90
2023-02-27T09:12:44.775Z,6.60
2023-02-27T09:15:11.646Z,8.82
2023-02-27T09:17:38.131Z,9.52
2023-02-27T09:20:05.015Z,6.53
2023-02-27T09:22:31.426Z,8.00
2023-02-27T09:24:59.189Z,7.68
2023-02-27T09:27:25.605Z,6.43
2023-02-27T09:29:51.984Z,7.10
2023-02-27T09:32:18.509Z,6.13
2023-02-27T09:34:44.953Z,6.82
2023-02-27T09:37:11.349Z,6.82
2023-02-27T09:39:37.783Z,6.90
2023-02-27T09:42:06.648Z,6.55
2023-02-27T09:44:46.252Z,6.57
2023-02-27T09:47:15.471Z,6.75
2023-02-27T09:49:47.301Z,6.45
2023-02-27T09:52:14.139Z,7.70
2023-02-27T09:54:41.458Z,7.18
2023-02-27T09:57:14.702Z,6.95
2023-02-27T09:59:44.262Z,6.95
2023-02-27T10:02:20.737Z,6.03
2023-02-27T10:04:50.261Z,6.35
2023-02-27T10:07:19.942Z,6.70
2023-02-27T10:12:20.851Z,6.85
2023-02-27T10:14:50.292Z,7.30
2023-02-27T10:17:21.227Z,7.57
2023-02-27T10:19:48.168Z,8.20
2023-02-27T10:22:18.612Z,7.32
2023-02-27T10:24:47.316Z,7.50
2023-02-27T10:27:15.450Z,7.20
2023-02-27T10:29:43.310Z,7.00
2023-02-27T10:32:12.704Z,7.13
2023-02-27T10:34:39.930Z,7.30
2023-02-27T10:37:07.387Z,7.00
2023-02-27T10:39:42.750Z,7.45
2023-02-27T10:42:10.777Z,8.35
2023-02-27T10:44:37.151Z,7.38
2023-02-27T10:47:04.961Z,7.78
2023-02-27T10:49:32.086Z,6.93
2023-02-27T10:52:05.916Z,7.35
2023-02-27T10:54:32.322Z,7.88
2023-02-27T10:57:00.700Z,7.43
2023-02-27T10:59:28.399Z,7.90
2023-02-27T11:01:56.082Z,7.68
2023-02-27T11:04:29.319Z,8.23
2023-02-27T11:06:56.072Z,7.88
2023-02-27T11:09:23.616Z,7.85
2023-02-27T11:11:50.430Z,7.50
2023-02-27T11:14:24.901Z,7.43
2023-02-27T11:16:52.175Z,7.97
2023-02-27T11:19:24.432Z,8.13
2023-02-27T11:22:01.116Z,8.65
2023-02-27T11:24:27.601Z,7.63
2023-02-27T11:26:54.953Z,8.05
2023-02-27T11:29:21.373Z,7.35
2023-02-27T11:31:50.745Z,7.00
2023-02-27T11:34:19.544Z,7.57
2023-02-27T11:36:47.035Z,7.33
2023-02-27T11:39:23.966Z,8.23
2023-02-27T11:41:50.799Z,8.02
2023-02-27T11:44:18.169Z,7.45
2023-02-27T11:47:11.615Z,7.47
2023-02-27T11:49:41.950Z,8.18
2023-02-27T11:52:11.322Z,7.82
2023-02-27T11:54:40.145Z,8.35
2023-02-27T11:57:10.894Z,7.97
2023-02-27T11:59:40.159Z,8.90
2023-02-27T12:02:15.081Z,7.93
2023-02-27T12:04:44.566Z,8.18
2023-02-27T12:07:14.352Z,8.05
2023-02-27T12:09:44.579Z,8.25
2023-02-27T12:12:16.654Z,7.72
2023-02-27T12:14:45.762Z,8.00
2023-02-27T12:17:15.509Z,7.93
2023-02-27T12:19:43.591Z,8.15
2023-02-27T12:22:15.301Z,7.85
2023-02-27T12:24:47.233Z,8.23
2023-02-27T12:27:16.475Z,7.68
2023-02-27T12:29:45.521Z,7.47
2023-02-27T12:32:16.371Z,8.07
2023-02-27T12:34:45.146Z,7.88
2023-02-27T12:37:13.058Z,7.80
2023-02-27T12:39:39.955Z,7.65
2023-02-27T12:42:27.389Z,7.45
2023-02-27T12:45:27.895Z,7.45
2023-02-27T12:47:59.395Z,7.88
2023-02-27T12:50:26.483Z,7.88
2023-02-27T12:52:59.085Z,7.63
2023-02-27T12:55:26.980Z,7.45
2023-02-27T12:58:11.282Z,7.95
2023-02-27T13:00:41.766Z,7.50
2023-02-27T13:03:13.045Z,8.20
2023-02-27T13:05:41.641Z,7.78
2023-02-27T13:08:13.344Z,7.63
2023-02-27T13:10:41.866Z,8.85
2023-02-27T13:13:12.630Z,8.63
2023-02-27T13:15:41.012Z,8.60
2023-02-27T13:18:09.347Z,8.85
2023-02-27T13:20:40.194Z,7.80
2023-02-27T13:23:11.979Z,7.82
2023-02-27T13:25:39.495Z,8.48
2023-02-27T13:28:07.344Z,7.50
2023-02-27T13:30:35.567Z,8.23
2023-02-27T13:33:08.054Z,8.07
2023-02-27T13:35:40.465Z,7.57
2023-02-27T13:38:21.746Z,7.57
2023-02-27T13:40:49.523Z,8.18
2023-02-27T13:43:31.238Z,8.55
2023-02-27T13:45:58.471Z,8.93
2023-02-27T13:48:40.958Z,9.07
2023-02-27T13:51:30.979Z,8.35
2023-02-27T13:54:07.864Z,8.80
2023-02-27T13:56:35.810Z,9.23
2023-02-27T13:59:10.509Z,8.95
2023-02-27T14:01:37.242Z,8.82
2023-02-27T14:04:05.867Z,8.93
2023-02-27T14:06:32.291Z,9.32
2023-02-27T14:09:12.808Z,9.02
2023-02-27T14:11:50.709Z,9.27
2023-02-27T14:14:37.671Z,9.82
2023-02-27T14:17:04.193Z,9.30
2023-02-27T14:19:48.236Z,9.93
2023-02-27T14:22:34.906Z,10.25
2023-02-27T14:25:03.440Z,10.38
2023-02-27T14:27:36.378Z,10.13
2023-02-27T14:30:04.184Z,10.55
2023-02-27T14:32:32.663Z,9.68
2023-02-27T14:34:59.715Z,11.38
2023-02-27T14:37:27.046Z,10.73
2023-02-27T14:39:54.251Z,9.57
2023-02-27T14:42:34.346Z,9.85
2023-02-27T14:45:02.386Z,10.52
2023-02-27T14:47:31.119Z,10.30
2023-02-27T14:49:57.973Z,10.57
2023-02-27T14:52:25.310Z,10.52
2023-02-27T14:54:52.702Z,10.65
2023-02-27T14:57:20.378Z,10.82
2023-02-27T14:59:47.647Z,10.20
2023-02-27T15:02:21.260Z,10.07
2023-02-27T15:04:48.452Z,11.07
2023-02-27T15:07:18.628Z,11.68
2023-02-27T15:09:46.769Z,11.07
2023-02-27T15:12:16.712Z,11.45
2023-02-27T15:14:46.088Z,10.77
2023-02-27T15:17:16.570Z,11.27
2023-02-27T15:19:47.768Z,10.30
2023-02-27T15:22:18.075Z,10.55
2023-02-27T15:24:50.368Z,9.82
2023-02-27T15:27:18.305Z,10.05
2023-02-27T15:29:47.962Z,10.85
2023-02-27T15:34:42.733Z,10.80
2023-02-27T15:37:16.168Z,10.43
2023-02-27T15:39:42.605Z,10.55
2023-02-27T15:42:10.047Z,9.85
2023-02-27T15:44:38.838Z,9.98
2023-02-27T15:47:05.978Z,11.30
2023-02-27T15:49:32.505Z,11.10
2023-02-27T15:52:00.599Z,12.00
2023-02-27T15:54:31.175Z,10.85
2023-02-27T15:56:57.565Z,11.52
2023-02-27T15:59:24.266Z,14.02
2023-02-27T16:01:51.639Z,11.80
2023-02-27T16:04:22.485Z,12.30
2023-02-27T16:06:51.530Z,11.23
2023-02-27T16:09:21.692Z,11.30
2023-02-27T16:11:49.723Z,12.07
2023-02-27T16:14:34.573Z,12.48
2023-02-27T16:17:00.956Z,14.18
2023-02-27T16:19:30.078Z,15.27
2023-02-27T16:22:03.715Z,16.20
2023-02-27T16:24:31.157Z,16.92
2023-02-27T16:26:59.375Z,17.27
2023-02-27T16:29:29.212Z,17.77
2023-02-27T16:31:56.334Z,18.42
2023-02-27T16:34:26.141Z,18.23
2023-02-27T16:36:55.579Z,19.15
2023-02-27T16:39:22.265Z,20.20
2023-02-27T16:41:48.961Z,20.35
2023-02-27T16:44:16.708Z,20.35
2023-02-27T16:46:43.052Z,20.75
2023-02-27T16:49:19.906Z,19.83
2023-02-27T16:51:46.720Z,20.27
2023-02-27T16:54:13.147Z,20.75
2023-02-27T16:56:39.733Z,20.10
2023-02-27T16:59:06.363Z,20.42
2023-02-27T17:01:34.499Z,21.13
2023-02-27T17:04:01.086Z,20.20
2023-02-27T17:06:28.253Z,21.02
2023-02-27T17:08:54.913Z,19.83
2023-02-27T17:11:21.298Z,21.95
2023-02-27T17:13:47.726Z,20.65
2023-02-27T17:16:14.463Z,21.88
2023-02-27T17:18:42.269Z,22.05
2023-02-27T17:21:08.689Z,22.55
2023-02-27T17:23:35.076Z,21.55
2023-02-27T17:26:01.486Z,22.88
2023-02-27T17:28:27.898Z,23.42
2023-02-27T17:30:54.376Z,22.88
2023-02-27T17:33:20.797Z,23.38
2023-02-27T17:35:48.571Z,23.38
2023-02-27T17:38:14.930Z,24.05
2023-02-27T17:40:41.334Z,25.05
2023-02-27T17:43:07.727Z,24.55
2023-02-27T17:45:34.115Z,22.20
2023-02-27T17:48:00.587Z,22.25
2023-02-27T17:50:27.065Z,23.58
2023-02-27T17:52:54.776Z,26.02
2023-02-27T17:55:21.182Z,24.02
2023-02-27T17:57:47.541Z,25.42
2023-02-27T18:00:14.419Z,25.80
2023-02-27T18:02:41.014Z,24.98
2023-02-27T18:05:07.875Z,25.92
2023-02-27T18:07:34.332Z,27.88
2023-02-27T18:10:02.174Z,28.20
2023-02-27T18:12:28.527Z,28.15
2023-02-27T18:14:54.967Z,25.20
2023-02-27T18:17:21.373Z,23.40
2023-02-27T18:19:47.896Z,22.27
2023-02-27T18:22:14.355Z,22.38
2023-02-27T18:24:41.139Z,20.20
2023-02-27T18:27:08.902Z,21.92
2023-02-27T18:29:35.305Z,20.00
2023-02-27T18:32:01.845Z,19.45
2023-02-27T18:34:28.242Z,20.80
2023-02-27T18:36:56.471Z,19.48
2023-02-27T18:41:50.430Z,18.08
2023-02-27T18:44:18.187Z,17.05
2023-02-27T18:46:44.642Z,17.13
2023-02-27T18:49:11.083Z,16.85
2023-02-27T18:51:37.576Z,15.80
2023-02-27T18:54:04.158Z,15.10
2023-02-27T18:56:31.007Z,15.85
2023-02-27T18:58:58.065Z,16.70
2023-02-27T19:01:27.525Z,14.27
2023-02-27T19:03:54.273Z,13.90
2023-02-27T19:06:20.701Z,15.98
2023-02-27T19:08:47.085Z,16.52
2023-02-27T19:11:20.873Z,15.88
2023-02-27T19:13:47.508Z,15.10
2023-02-27T19:16:13.926Z,14.27
2023-02-27T19:18:41.698Z,15.23
2023-02-27T19:21:08.108Z,15.45
2023-02-27T19:23:34.525Z,14.57
2023-02-27T19:26:01.074Z,14.20
2023-02-27T19:28:27.483Z,14.50
2023-02-27T19:30:53.874Z,15.20
2023-02-27T19:33:20.277Z,14.85
2023-02-27T19:35:48.064Z,14.68
2023-02-27T19:38:14.476Z,15.85
2023-02-27T19:40:40.870Z,14.80
2023-02-27T19:43:07.254Z,14.77
2023-02-27T19:45:33.683Z,14.68
2023-02-27T19:48:00.236Z,13.95
2023-02-27T19:50:26.640Z,14.20
2023-02-27T19:52:54.404Z,12.95
2023-02-27T19:55:20.817Z,13.05
2023-02-27T19:57:47.186Z,13.77
2023-02-27T20:00:14.206Z,13.95
2023-02-27T20:02:40.887Z,13.02
2023-02-27T20:05:07.596Z,14.00
2023-02-27T20:07:33.984Z,13.10
2023-02-27T20:10:01.746Z,14.30
2023-02-27T20:12:28.166Z,14.00
2023-02-27T20:14:54.597Z,13.75
2023-02-27T20:17:21.005Z,14.68
2023-02-27T20:19:47.435Z,13.18
2023-02-27T20:22:13.868Z,14.27
2023-02-27T20:24:40.276Z,13.80
2023-02-27T20:27:08.050Z,14.00
2023-02-27T20:29:34.402Z,13.77
2023-02-27T20:32:00.986Z,13.68
2023-02-27T20:34:27.682Z,13.80
2023-02-27T20:36:54.547Z,13.13
2023-02-27T20:39:22.766Z,13.32
2023-02-27T20:41:49.169Z,13.30
2023-02-27T20:44:17.007Z,13.43
2023-02-27T20:46:43.708Z,13.52
2023-02-27T20:49:11.130Z,13.85
2023-02-27T20:51:38.545Z,13.90
2023-02-27T20:54:05.796Z,14.50
2023-02-27T20:56:33.116Z,13.88
2023-02-27T20:59:01.168Z,12.57
2023-02-27T21:01:29.559Z,13.27
2023-02-27T21:03:56.861Z,13.70
2023-02-27T21:06:23.607Z,13.68
2023-02-27T21:08:51.027Z,14.48
2023-02-27T21:11:18.310Z,13.75
2023-02-27T21:13:44.867Z,13.40
2023-02-27T21:16:12.356Z,13.38
2023-02-27T21:18:40.261Z,13.68
2023-02-27T21:21:08.603Z,13.45
2023-02-27T21:23:35.390Z,13.13
2023-02-27T21:26:04.308Z,12.48
2023-02-27T21:28:30.689Z,12.98
2023-02-27T21:30:57.122Z,13.90
2023-02-27T21:33:23.490Z,13.13
2023-02-27T21:35:51.306Z,13.02
2023-02-27T21:38:17.738Z,12.93
2023-02-27T21:40:44.129Z,13.02
2023-02-27T21:43:10.557Z,12.68
2023-02-27T21:45:37.242Z,12.73
2023-02-27T21:48:04.046Z,12.27
2023-02-27T21:50:30.430Z,12.77
2023-02-27T21:52:58.992Z,12.98
2023-02-27T21:55:25.389Z,11.88
2023-02-27T21:57:51.740Z,12.68
2023-02-27T22:00:18.950Z,12.93
2023-02-27T22:02:45.395Z,12.63
2023-02-27T22:05:11.902Z,13.05
2023-02-27T22:07:38.533Z,12.57
2023-02-27T22:10:06.630Z,12.75
2023-02-27T22:12:33.024Z,12.50
2023-02-27T22:14:59.434Z,12.63
2023-02-27T22:17:25.899Z,13.43
2023-02-27T22:19:52.325Z,12.40
2023-02-27T22:22:18.734Z,12.38
2023-02-27T22:24:45.166Z,12.60
2023-02-27T22:27:12.972Z,12.95
2023-02-27T22:29:40.719Z,13.18
2023-02-27T22:32:08.224Z,13.10
2023-02-27T22:34:34.661Z,13.20
2023-02-27T22:37:01.043Z,13.20
2023-02-27T22:39:27.688Z,12.85
2023-02-27T22:41:56.483Z,13.35
2023-02-27T22:44:24.571Z,17.63
2023-02-27T22:46:51.025Z,18.67
2023-02-27T22:49:18.274Z,18.90
2023-02-27T22:51:44.717Z,18.15
2023-02-27T22:54:12.401Z,18.20
2023-02-27T22:56:39.138Z,16.67
2023-02-27T22:59:06.882Z,17.40
2023-02-27T23:01:35.709Z,17.15
2023-02-27T23:04:03.151Z,17.90
2023-02-27T23:06:30.383Z,16.67
2023-02-27T23:08:57.212Z,18.10
2023-02-27T23:11:23.612Z,18.23
2023-02-27T23:13:50.097Z,19.90
2023-02-27T23:16:16.554Z,18.95
2023-02-27T23:18:45.178Z,18.63
2023-02-27T23:21:11.976Z,20.13
2023-02-27T23:23:38.533Z,20.27
2023-02-27T23:26:05.803Z,20.20
2023-02-27T23:28:32.825Z,20.20
2023-02-27T23:30:59.539Z,19.77
2023-02-27T23:33:26.090Z,19.92
2023-02-27T23:35:53.864Z,19.33
2023-02-27T23:38:20.364Z,18.10
2023-02-27T23:40:46.881Z,18.23
2023-02-27T23:43:13.962Z,17.60
2023-02-27T23:45:40.445Z,16.98
2023-02-27T23:48:07.136Z,16.25
2023-02-27T23:50:35.486Z,15.48
2023-02-27T23:53:03.422Z,15.70
2023-02-27T23:55:31.049Z,15.50
2023-02-27T23:57:58.263Z,15.90
